PDT,Max TemperatureF,Mean TemperatureF,Min TemperatureF,Max Dew PointF,MeanDew PointF,Min DewpointF,Max Humidity, Mean Humidity, Min Humidity, Max Sea Level PressureIn, Mean Sea Level PressureIn, Min Sea Level PressureIn, Max VisibilityMiles, Mean VisibilityMiles, Min VisibilityMiles, Max Wind SpeedMPH, Mean Wind SpeedMPH, Max Gust SpeedMPH,PrecipitationIn, CloudCover, Events, WindDirDegrees
2013-8-1,76,60,44,52,41,29,93,58,19,30.07,29.98,29.95,10,5,2,22,7,26,0.00,1,,284
2013-8-2,78,56,34,46,38,23,100,70,14,30.14,30.07,29.97,10,4,0,17,4,26,0.00,0,Fog,319
2013-8-3,83,63,43,48,38,23,83,44,11,30.04,29.98,29.90,10,9,3,12,4,15,0.00,0,,336
2013-8-4,87,66,45,49,42,29,93,47,13,30.07,29.96,29.89,10,7,3,9,2,14,0.00,1,,263
2013-8-5,88,68,48,50,46,37,86,49,17,30.10,29.97,29.88,10,5,2,17,3,22,0.00,1,,357
2013-8-6,90,69,48,52,45,28,86,53,11,30.10,29.98,29.86,10,5,2,18,5,21,0.00,1,,296
2013-8-7,80,68,56,54,50,44,72,57,30,30.13,30.00,29.91,10,8,4,26,8,40,0.03,4,Rain-Thunderstorm,271
2013-8-8,77,61,45,51,46,43,93,63,33,30.08,29.97,29.94,10,9,5,15,3,17,0.00,1,,133
2013-8-9,77,60,42,52,45,39,92,62,29,30.00,29.94,29.88,10,10,10,16,4,21,0.01,2,Rain-Thunderstorm,18
2013-8-10,75,60,45,52,46,39,100,65,29,30.04,30.00,29.96,10,10,6,16,5,20,0.01,3,Rain,176
2013-8-11,81,62,42,49,44,38,96,65,23,30.14,30.03,29.94,10,8,1,16,3,21,0.00,0,,268
2013-8-12,82,63,44,50,45,34,93,52,18,30.08,30.00,29.94,10,10,10,15,3,30,T,1,Rain-Thunderstorm,291
2013-8-13,86,66,45,50,45,37,93,54,19,30.07,30.00,29.92,10,10,8,13,3,15,0.00,0,,272
2013-8-14,87,68,48,52,46,39,100,62,19,30.11,29.99,29.88,10,7,1,18,4,22,0.00,0,,217
2013-8-15,89,67,44,53,44,35,93,52,16,29.99,29.94,29.88,10,9,6,16,3,21,0.00,0,,214
2013-8-16,86,67,47,53,49,43,96,55,23,30.12,29.98,29.95,10,9,2,18,4,21,0.00,0,,307
2013-8-17,88,69,50,57,51,43,96,57,21,30.04,29.99,29.91,10,9,5,23,5,28,0.00,1,,317
2013-8-18,92,71,50,54,48,38,89,51,15,30.06,30.00,29.93,10,9,6,20,6,25,0.00,0,,316
2013-8-19,94,73,52,53,47,32,86,47,12,30.03,29.98,29.91,10,10,7,21,6,24,0.00,0,,321
2013-8-20,89,69,49,52,47,37,89,49,17,30.11,29.95,29.86,10,10,7,16,6,20,0.00,1,,298
2013-8-21,87,71,55,54,43,34,72,38,18,30.10,29.93,29.85,10,10,8,31,7,43,0.00,1,,16
2013-8-22,79,62,45,53,49,43,100,69,40,30.12,29.98,29.88,10,9,2,29,5,36,0.06,2,Rain-Thunderstorm,20
2013-8-23,82,61,40,49,43,35,100,80,20,30.06,29.98,29.81,10,5,0,17,4,21,0.00,1,Fog,352
2013-8-24,78,61,44,51,47,43,93,65,31,29.95,29.84,29.77,10,9,2,18,3,22,T,2,Rain-Thunderstorm,269
2013-8-25,72,59,46,54,49,43,93,68,44,29.99,29.91,29.85,10,10,5,30,5,38,0.13,4,Rain-Thunderstorm,256
2013-8-26,76,59,42,50,44,39,100,73,27,30.03,29.97,29.92,10,7,0,18,6,24,0.00,1,Fog,244
2013-8-27,82,61,39,48,39,27,100,67,13,30.04,29.93,29.81,10,7,0,22,5,26,0.00,0,Fog,167
2013-8-28,83,62,41,44,38,34,82,45,18,29.92,29.88,29.84,10,10,10,22,7,26,0.00,0,,166
2013-8-29,83,67,51,51,44,39,89,46,23,30.06,29.97,29.89,10,10,10,23,8,28,T,2,,191
2013-8-30,84,63,42,52,46,39,100,71,22,30.21,30.10,29.99,10,7,0,10,3,13,0.00,0,Fog,90
2013-8-31,89,66,43,48,41,30,93,48,12,30.03,29.95,29.85,10,10,10,15,5,20,0.00,0,,170